createdAt,value
2018-11-10T00:01:48.215Z,3.30
2018-11-10T00:04:16.889Z,3.30
2018-11-10T00:06:45.468Z,3.30
2018-11-10T00:09:14.146Z,3.40
2018-11-10T00:11:42.792Z,3.40
2018-11-10T00:14:11.509Z,3.30
2018-11-10T00:16:40.136Z,3.30
2018-11-10T00:19:08.972Z,3.30
2018-11-10T00:21:37.583Z,3.20
2018-11-10T00:24:06.447Z,3.10
2018-11-10T00:26:36.038Z,3.10
2018-11-10T00:29:05.860Z,3.10
2018-11-10T00:31:34.554Z,3.00
2018-11-10T00:34:03.314Z,2.90
2018-11-10T00:36:31.925Z,2.90
2018-11-10T00:39:00.528Z,2.80
2018-11-10T00:41:29.192Z,2.80
2018-11-10T00:43:58.899Z,2.80
2018-11-10T00:46:27.843Z,2.80
2018-11-10T00:48:56.482Z,2.80
2018-11-10T00:51:26.250Z,2.80
2018-11-10T00:53:55.190Z,2.80
2018-11-10T00:56:25.149Z,2.80
2018-11-10T00:58:53.986Z,2.80
2018-11-10T01:01:23.187Z,2.90
2018-11-10T01:03:52.357Z,2.80
2018-11-10T01:06:21.123Z,2.80
2018-11-10T01:08:49.945Z,2.80
2018-11-10T01:11:18.734Z,2.70
2018-11-10T01:13:47.562Z,2.70
2018-11-10T01:16:16.346Z,2.70
2018-11-10T01:18:44.979Z,2.70
2018-11-10T01:21:14.571Z,2.70
2018-11-10T01:23:43.463Z,2.70
2018-11-10T01:26:12.602Z,2.70
2018-11-10T01:28:41.456Z,2.60
2018-11-10T01:31:10.983Z,2.60
2018-11-10T01:33:40.192Z,2.60
2018-11-10T01:36:09.039Z,2.70
2018-11-10T01:38:37.862Z,2.70
2018-11-10T01:41:06.756Z,2.70
2018-11-10T01:43:35.545Z,2.70
2018-11-10T01:46:05.289Z,2.70
2018-11-10T01:48:34.024Z,2.80
2018-11-10T01:51:02.600Z,2.80
2018-11-10T01:53:31.247Z,2.80
2018-11-10T01:55:59.802Z,2.80
2018-11-10T01:58:28.328Z,2.70
2018-11-10T02:00:56.865Z,2.70
2018-11-10T02:03:25.487Z,2.70
2018-11-10T02:05:54.137Z,2.70
2018-11-10T02:08:22.678Z,2.80
2018-11-10T02:10:51.327Z,2.80
2018-11-10T02:13:20.057Z,2.70
2018-11-10T02:15:48.672Z,2.70
2018-11-10T02:18:17.368Z,2.70
2018-11-10T02:20:46.282Z,2.70
2018-11-10T02:23:15.054Z,2.80
2018-11-10T02:25:43.914Z,2.90
2018-11-10T02:28:12.984Z,3.00
2018-11-10T02:30:41.896Z,3.10
2018-11-10T02:33:10.611Z,3.20
2018-11-10T02:35:39.446Z,3.30
2018-11-10T02:38:08.141Z,3.30
2018-11-10T02:40:36.860Z,3.20
2018-11-10T02:43:05.778Z,3.20
2018-11-10T02:45:34.391Z,3.20
2018-11-10T02:48:03.151Z,3.20
2018-11-10T02:50:32.066Z,3.20
2018-11-10T02:53:00.771Z,3.40
2018-11-10T02:55:29.726Z,3.40
2018-11-10T02:57:58.443Z,3.40
2018-11-10T03:00:27.110Z,3.40
2018-11-10T03:02:55.731Z,3.30
2018-11-10T03:05:24.394Z,3.30
2018-11-10T03:07:53.286Z,3.20
2018-11-10T03:10:21.937Z,3.20
2018-11-10T03:12:50.600Z,3.20
2018-11-10T03:15:19.183Z,3.20
2018-11-10T03:17:47.917Z,3.20
2018-11-10T03:20:16.651Z,3.30
2018-11-10T03:22:45.871Z,3.30
2018-11-10T03:25:16.594Z,3.40
2018-11-10T03:27:45.336Z,3.50
2018-11-10T03:30:14.192Z,3.50
2018-11-10T03:32:43.040Z,3.50
2018-11-10T03:35:13.163Z,3.50
2018-11-10T03:37:42.266Z,3.60
2018-11-10T03:40:11.830Z,3.70
2018-11-10T03:42:40.756Z,3.70
2018-11-10T03:45:10.129Z,3.70
2018-11-10T03:47:38.868Z,3.70
2018-11-10T03:50:07.354Z,3.80
2018-11-10T03:52:35.826Z,3.70
2018-11-10T03:55:04.862Z,3.60
2018-11-10T03:57:33.331Z,3.70
2018-11-10T04:00:01.758Z,3.70
2018-11-10T04:02:30.214Z,3.70
2018-11-10T04:04:58.539Z,3.70
2018-11-10T04:07:27.027Z,3.70
2018-11-10T04:09:55.651Z,3.70
2018-11-10T04:12:24.201Z,3.60
2018-11-10T04:14:52.755Z,3.60
2018-11-10T04:17:21.263Z,3.60
2018-11-10T04:19:49.766Z,3.50
2018-11-10T04:22:22.463Z,3.60
2018-11-10T04:24:50.887Z,3.60
2018-11-10T04:27:19.324Z,3.60
2018-11-10T04:29:47.853Z,3.60
2018-11-10T04:32:16.435Z,3.50
2018-11-10T04:34:45.121Z,3.60
2018-11-10T04:37:13.636Z,3.50
2018-11-10T04:39:42.234Z,3.50
2018-11-10T04:42:10.686Z,3.60
2018-11-10T04:44:39.147Z,3.60
2018-11-10T04:47:07.680Z,3.60
2018-11-10T05:35:30.325Z,4.40
2018-11-10T05:37:58.828Z,4.40
2018-11-10T05:40:27.403Z,4.40
2018-11-10T05:42:55.867Z,4.40
2018-11-10T05:45:24.194Z,4.40
2018-11-10T05:47:52.730Z,4.40
2018-11-10T05:50:21.019Z,4.40
2018-11-10T05:52:49.408Z,4.40
2018-11-10T05:55:17.687Z,4.40
2018-11-10T05:57:45.981Z,4.40
2018-11-10T06:00:14.450Z,4.40
2018-11-10T06:02:43.001Z,4.40
2018-11-10T06:05:11.923Z,4.40
2018-11-10T06:07:44.322Z,4.50
2018-11-10T06:10:12.997Z,4.50
2018-11-10T06:12:42.364Z,4.60
2018-11-10T06:15:11.102Z,4.60
2018-11-10T06:17:40.498Z,4.60
2018-11-10T06:20:10.104Z,4.60
2018-11-10T06:22:38.377Z,4.60
2018-11-10T06:25:07.291Z,4.70
2018-11-10T06:27:35.810Z,4.70
2018-11-10T06:30:04.677Z,4.70
2018-11-10T06:32:33.426Z,4.70
2018-11-10T06:35:02.016Z,4.60
2018-11-10T06:37:30.795Z,4.70
2018-11-10T06:40:02.212Z,4.70
2018-11-10T06:42:30.805Z,4.80
2018-11-10T06:45:01.227Z,4.80
2018-11-10T06:47:29.819Z,4.80
2018-11-10T06:49:58.481Z,4.80
2018-11-10T06:52:27.187Z,4.80
2018-11-10T06:54:55.837Z,4.80
2018-11-10T06:57:24.926Z,4.80
2018-11-10T06:59:53.456Z,4.80
2018-11-10T07:02:22.118Z,4.80
2018-11-10T07:04:50.729Z,4.80
2018-11-10T07:07:19.342Z,4.90
2018-11-10T07:09:47.918Z,4.80
2018-11-10T07:12:16.629Z,4.90
2018-11-10T07:14:45.210Z,4.90
2018-11-10T07:17:13.876Z,4.90
2018-11-10T07:19:42.538Z,4.90
2018-11-10T07:22:11.837Z,5.00
2018-11-10T07:24:40.622Z,5.00
2018-11-10T07:27:09.366Z,5.10
2018-11-10T07:29:38.028Z,5.10
2018-11-10T07:32:06.997Z,5.20
2018-11-10T08:56:48.723Z,7.10
2018-11-10T08:59:17.244Z,7.20
2018-11-10T09:01:45.799Z,7.20
2018-11-10T09:04:14.428Z,7.30
2018-11-10T09:09:30.743Z,7.40
2018-11-10T09:11:59.800Z,7.60
2018-11-10T09:14:29.008Z,7.80
2018-11-10T09:16:57.479Z,7.90
2018-11-10T09:19:25.962Z,8.10
2018-11-10T09:21:55.636Z,8.20
2018-11-10T09:24:24.113Z,8.40
2018-11-10T09:26:52.598Z,8.60
2018-11-10T09:29:21.384Z,8.80
2018-11-10T09:31:59.509Z,9.00
2018-11-10T09:34:28.844Z,9.20
2018-11-10T09:36:58.604Z,9.50
2018-11-10T09:39:27.236Z,9.70
2018-11-10T09:41:56.662Z,10.10
2018-11-10T09:44:25.272Z,10.50
2018-11-10T09:46:54.233Z,10.90
2018-11-10T09:49:27.066Z,11.20
2018-11-10T09:51:56.635Z,11.40
2018-11-10T09:57:44.111Z,12.20
2018-11-10T10:00:16.256Z,12.20
2018-11-10T10:02:45.983Z,11.90
2018-11-10T10:05:14.118Z,11.70
2018-11-10T10:07:43.561Z,11.50
2018-11-10T11:49:30.656Z,12.00
2018-11-10T11:51:59.184Z,12.00
2018-11-10T11:54:28.098Z,12.00
2018-11-10T11:57:02.047Z,12.10
2018-11-10T11:59:30.785Z,12.10
2018-11-10T12:01:59.179Z,12.00
2018-11-10T12:04:28.594Z,11.90
2018-11-10T12:06:57.195Z,12.10
2018-11-10T12:09:25.718Z,12.10
2018-11-10T12:11:54.413Z,12.30
2018-11-10T12:14:22.959Z,12.40
2018-11-10T12:16:55.420Z,12.50
2018-11-10T12:19:24.047Z,12.60
2018-11-10T12:21:52.610Z,12.70
2018-11-10T12:24:21.212Z,12.70
2018-11-10T12:26:49.676Z,12.70
2018-11-10T12:29:18.296Z,13.00
2018-11-10T12:31:46.948Z,13.00
2018-11-10T12:34:15.660Z,13.20
2018-11-10T12:36:44.236Z,13.40
2018-11-10T12:39:13.119Z,13.70
2018-11-10T12:41:41.424Z,13.80
2018-11-10T12:44:10.491Z,13.80
2018-11-10T12:46:39.719Z,13.60
2018-11-10T12:49:08.931Z,13.50
2018-11-10T12:51:37.429Z,13.50
2018-11-10T12:54:06.891Z,13.40
2018-11-10T13:11:02.096Z,13.30
2018-11-10T13:13:30.678Z,13.60
2018-11-10T13:15:59.433Z,13.60
2018-11-10T13:18:30.515Z,13.50
2018-11-10T13:21:03.099Z,13.50
2018-11-10T13:23:31.731Z,13.50
2018-11-10T13:26:01.419Z,13.30
2018-11-10T19:37:35.387Z,13.10
2018-11-10T19:40:04.373Z,9.80
2018-11-10T19:42:33.027Z,9.90
2018-11-10T19:47:51.724Z,9.90
2018-11-10T19:50:20.393Z,10.00
2018-11-10T19:52:48.878Z,10.10
2018-11-10T19:55:21.832Z,10.10
2018-11-10T19:57:50.619Z,10.10
2018-11-10T20:00:31.669Z,10.00
2018-11-10T20:03:00.077Z,9.90
2018-11-10T20:05:28.283Z,9.80
2018-11-10T20:07:56.594Z,9.80
2018-11-10T20:10:25.063Z,9.70
2018-11-10T20:12:54.269Z,9.70
2018-11-10T20:15:27.185Z,9.70
2018-11-10T20:18:10.133Z,9.60
2018-11-10T20:23:28.228Z,9.70
2018-11-10T20:25:56.705Z,9.80
2018-11-10T20:28:25.227Z,9.70
2018-11-10T20:30:54.606Z,9.70
2018-11-10T20:33:23.939Z,9.70
2018-11-10T20:35:53.206Z,9.60
2018-11-10T20:38:22.309Z,9.70
2018-11-10T20:40:50.622Z,9.60
2018-11-10T20:43:18.888Z,9.50
2018-11-10T20:45:47.444Z,9.50
2018-11-10T20:48:15.815Z,9.50
2018-11-10T20:50:44.707Z,9.50
2018-11-10T20:53:14.095Z,9.60
2018-11-10T20:55:42.588Z,9.70
2018-11-10T20:58:10.817Z,9.70
2018-11-10T21:00:39.095Z,9.70
2018-11-10T21:11:48.222Z,9.50
2018-11-10T21:14:16.470Z,9.50
2018-11-10T21:16:44.738Z,9.50
2018-11-10T21:19:13.077Z,9.50
2018-11-10T21:21:41.487Z,9.40
2018-11-10T21:24:11.792Z,9.40
2018-11-10T21:26:40.299Z,9.40
2018-11-10T21:29:10.892Z,9.40
2018-11-10T21:31:39.228Z,9.40
2018-11-10T21:34:07.667Z,9.40
2018-11-10T21:36:36.018Z,9.30
2018-11-10T21:39:06.798Z,9.40
2018-11-10T21:41:35.187Z,9.40
2018-11-10T21:44:03.760Z,9.40
2018-11-10T21:46:32.649Z,9.40
2018-11-10T21:49:01.143Z,9.40
2018-11-10T21:51:29.683Z,9.30
2018-11-10T22:06:26.146Z,9.10
2018-11-10T22:11:57.775Z,9.00
2018-11-10T22:14:26.260Z,9.00
2018-11-10T22:16:54.619Z,9.00
2018-11-10T22:19:22.836Z,9.00
2018-11-10T22:21:53.707Z,8.90
2018-11-10T22:24:22.082Z,8.90
2018-11-10T22:26:50.512Z,8.90
2018-11-10T22:29:19.123Z,8.90
2018-11-10T22:31:47.552Z,9.00
2018-11-10T22:34:16.046Z,9.20
2018-11-10T22:36:44.548Z,9.30
2018-11-10T22:39:13.011Z,9.40
2018-11-10T22:41:41.509Z,9.30
2018-11-10T22:44:09.988Z,9.30
2018-11-10T22:46:38.462Z,9.20
2018-11-10T22:49:07.062Z,9.30
2018-11-10T22:51:35.735Z,9.30
2018-11-10T22:54:04.430Z,9.30
2018-11-10T22:56:33.056Z,9.30
2018-11-10T22:59:01.760Z,9.40
2018-11-10T23:01:31.835Z,9.30
2018-11-10T23:04:00.571Z,9.30
2018-11-10T23:06:29.208Z,9.10
2018-11-10T23:08:57.747Z,9.10
2018-11-10T23:11:26.676Z,9.00
2018-11-10T23:13:55.301Z,9.00
2018-11-10T23:16:23.885Z,8.90
2018-11-10T23:18:52.463Z,8.90
2018-11-10T23:21:21.088Z,8.90
2018-11-10T23:23:49.752Z,9.00
2018-11-10T23:26:18.415Z,9.00
2018-11-10T23:28:47.741Z,9.00
2018-11-10T23:31:16.241Z,9.10
2018-11-10T23:33:44.903Z,9.10
2018-11-10T23:36:13.559Z,9.10
2018-11-10T23:38:42.095Z,9.20
2018-11-10T23:41:10.760Z,9.20
2018-11-10T23:43:39.361Z,9.20
2018-11-10T23:46:08.004Z,9.20
2018-11-10T23:48:36.813Z,9.10
2018-11-10T23:51:05.984Z,9.10
2018-11-10T23:53:34.664Z,9.10
2018-11-10T23:56:03.390Z,9.10
2018-11-10T23:58:32.052Z,9.20
